createdAt,value
2019-03-30T00:00:03.606Z,62.17
2019-03-30T00:02:39.318Z,62.35
2019-03-30T00:05:13.198Z,50.95
2019-03-30T00:07:47.192Z,46.58
2019-03-30T00:10:21.008Z,48.79
2019-03-30T00:12:54.952Z,51.03
2019-03-30T00:15:28.789Z,52.74
2019-03-30T00:18:02.707Z,53.94
2019-03-30T00:20:36.527Z,54.96
2019-03-30T00:23:10.298Z,55.96
2019-03-30T00:25:44.216Z,56.68
2019-03-30T00:28:18.140Z,57.48
2019-03-30T00:30:52.062Z,58.34
2019-03-30T00:33:26.416Z,58.80
2019-03-30T00:36:01.656Z,59.28
2019-03-30T00:38:35.544Z,59.82
2019-03-30T00:41:11.191Z,60.36
2019-03-30T00:43:46.341Z,60.76
2019-03-30T00:46:21.963Z,61.43
2019-03-30T00:49:05.526Z,62.16
2019-03-30T00:51:48.943Z,62.28
2019-03-30T00:54:32.306Z,53.17
2019-03-30T00:57:16.765Z,53.94
2019-03-30T01:00:01.308Z,55.47
2019-03-30T01:02:44.660Z,56.73
2019-03-30T01:05:28.130Z,57.90
2019-03-30T01:08:11.978Z,58.81
2019-03-30T01:10:47.840Z,59.33
2019-03-30T01:13:23.537Z,59.78
2019-03-30T01:16:07.227Z,60.55
2019-03-30T01:18:42.922Z,61.20
2019-03-30T01:21:18.784Z,61.79
2019-03-30T01:24:02.761Z,62.53
2019-03-30T01:26:38.365Z,62.80
2019-03-30T01:29:14.087Z,51.77
2019-03-30T01:32:02.374Z,47.22
2019-03-30T01:34:39.583Z,49.57
2019-03-30T01:37:15.478Z,51.96
2019-03-30T01:39:50.567Z,53.56
2019-03-30T01:42:36.123Z,54.56
2019-03-30T01:45:11.788Z,55.43
2019-03-30T01:47:47.419Z,56.45
2019-03-30T01:50:32.044Z,57.50
2019-03-30T01:53:07.603Z,58.27
2019-03-30T01:55:52.640Z,59.08
2019-03-30T01:58:28.285Z,59.74
2019-03-30T02:01:03.911Z,60.35
2019-03-30T02:03:39.558Z,60.87
2019-03-30T02:06:23.487Z,61.37
2019-03-30T02:09:00.046Z,62.06
2019-03-30T02:11:35.798Z,63.45
2019-03-30T02:14:11.523Z,52.03
2019-03-30T02:16:56.330Z,47.33
2019-03-30T02:19:32.437Z,49.56
2019-03-30T02:22:07.345Z,51.80
2019-03-30T02:24:41.407Z,53.43
2019-03-30T02:27:15.334Z,54.61
2019-03-30T02:29:49.383Z,55.83
2019-03-30T02:32:23.163Z,56.73
2019-03-30T02:34:57.077Z,57.72
2019-03-30T02:37:30.992Z,58.41
2019-03-30T02:40:04.981Z,59.21
2019-03-30T02:42:38.871Z,59.92
2019-03-30T02:45:12.703Z,60.45
2019-03-30T02:47:46.660Z,61.00
2019-03-30T02:50:20.994Z,61.61
2019-03-30T02:52:55.057Z,62.04
2019-03-30T02:55:29.036Z,63.25
2019-03-30T02:58:03.001Z,52.04
2019-03-30T03:00:37.460Z,46.85
2019-03-30T03:03:11.425Z,48.73
2019-03-30T03:05:45.468Z,50.51
2019-03-30T03:08:19.465Z,52.04
2019-03-30T03:10:53.458Z,53.31
2019-03-30T03:13:27.292Z,54.40
2019-03-30T03:16:01.238Z,55.37
2019-03-30T03:18:35.179Z,56.30
2019-03-30T03:21:09.213Z,57.11
2019-03-30T03:23:43.103Z,57.85
2019-03-30T03:26:17.049Z,58.69
2019-03-30T03:28:51.016Z,59.65
2019-03-30T03:31:24.959Z,60.74
2019-03-30T03:33:58.966Z,61.57
2019-03-30T03:36:32.916Z,62.27
2019-03-30T03:39:08.130Z,63.69
2019-03-30T03:41:42.110Z,52.99
2019-03-30T03:44:16.064Z,47.90
2019-03-30T03:46:50.027Z,50.06
2019-03-30T03:49:24.035Z,52.34
2019-03-30T03:51:58.070Z,54.15
2019-03-30T03:54:32.151Z,55.22
2019-03-30T03:57:06.779Z,56.19
2019-03-30T03:59:41.701Z,57.05
2019-03-30T04:02:15.743Z,57.71
2019-03-30T04:04:52.060Z,58.48
2019-03-30T04:15:13.750Z,61.58
2019-03-30T04:17:48.010Z,63.89
2019-03-30T04:20:26.644Z,52.57
2019-03-30T04:23:02.523Z,46.83
2019-03-30T04:25:36.868Z,49.18
2019-03-30T04:28:11.421Z,51.50
2019-03-30T04:30:45.610Z,53.36
2019-03-30T04:33:21.023Z,55.04
2019-03-30T04:35:55.369Z,56.32
2019-03-30T04:38:29.373Z,57.63
2019-03-30T04:41:03.856Z,58.63
2019-03-30T04:43:38.089Z,59.59
2019-03-30T04:46:15.074Z,60.61
2019-03-30T04:49:14.324Z,61.56
2019-03-30T04:51:57.938Z,62.38
2019-03-30T04:54:33.561Z,63.76
2019-03-30T04:57:17.227Z,52.30
2019-03-30T04:59:54.791Z,47.55
2019-03-30T05:03:15.109Z,50.15
2019-03-30T05:06:18.935Z,53.02
2019-03-30T05:08:58.089Z,54.93
2019-03-30T05:11:34.461Z,56.54
2019-03-30T05:14:09.880Z,57.64
2019-03-30T05:17:04.934Z,58.69
2019-03-30T05:19:41.016Z,59.54
2019-03-30T05:22:24.523Z,60.36
2019-03-30T05:25:05.402Z,61.56
2019-03-30T05:27:40.906Z,62.69
2019-03-30T05:30:19.656Z,64.38
2019-03-30T05:33:05.428Z,53.12
2019-03-30T05:35:45.033Z,48.52
2019-03-30T05:38:23.574Z,51.16
2019-03-30T05:41:10.207Z,53.34
2019-03-30T05:43:56.139Z,55.38
2019-03-30T05:46:42.724Z,56.95
2019-03-30T05:49:22.425Z,57.98
2019-03-30T05:52:03.485Z,58.88
2019-03-30T05:54:39.546Z,59.85
2019-03-30T05:57:15.673Z,61.23
2019-03-30T05:59:56.291Z,62.36
2019-03-30T06:02:36.291Z,63.41
2019-03-30T06:05:21.448Z,51.68
2019-03-30T06:08:08.897Z,47.78
2019-03-30T06:10:46.173Z,50.92
2019-03-30T06:13:28.091Z,53.65
2019-03-30T06:16:14.281Z,55.62
2019-03-30T06:18:52.648Z,57.19
2019-03-30T06:21:29.150Z,58.23
2019-03-30T06:24:06.970Z,59.03
2019-03-30T06:26:49.445Z,59.75
2019-03-30T06:29:28.970Z,60.88
2019-03-30T06:32:17.104Z,61.48
2019-03-30T06:35:18.421Z,62.35
2019-03-30T06:38:04.479Z,61.36
2019-03-30T06:40:48.375Z,49.75
2019-03-30T06:43:24.740Z,47.43
2019-03-30T06:45:58.879Z,50.26
2019-03-30T06:48:35.948Z,52.76
2019-03-30T06:51:08.837Z,54.36
2019-03-30T06:53:42.967Z,55.70
2019-03-30T06:56:17.080Z,56.89
2019-03-30T06:58:51.292Z,58.14
2019-03-30T07:01:25.425Z,58.64
2019-03-30T07:04:00.688Z,59.39
2019-03-30T07:06:35.158Z,60.08
2019-03-30T07:09:09.326Z,60.49
2019-03-30T07:11:45.276Z,61.00
2019-03-30T07:14:19.417Z,62.02
2019-03-30T07:16:54.187Z,61.80
2019-03-30T07:19:28.256Z,50.75
2019-03-30T07:22:02.290Z,47.20
2019-03-30T07:24:37.047Z,49.67
2019-03-30T07:27:11.067Z,51.43
2019-03-30T07:29:45.140Z,52.71
2019-03-30T07:32:19.467Z,53.86
2019-03-30T07:34:53.537Z,55.03
2019-03-30T07:37:27.560Z,56.35
2019-03-30T07:40:02.550Z,56.59
2019-03-30T07:42:36.543Z,57.03
2019-03-30T07:45:10.697Z,56.69
2019-03-30T07:47:45.101Z,58.48
2019-03-30T07:50:19.249Z,58.29
2019-03-30T07:52:53.279Z,58.78
2019-03-30T07:55:27.265Z,58.97
2019-03-30T07:58:01.403Z,59.42
2019-03-30T08:00:35.578Z,60.00
2019-03-30T08:03:09.632Z,60.56
2019-03-30T08:05:45.219Z,60.97
2019-03-30T08:08:19.252Z,60.77
2019-03-30T08:10:54.443Z,60.59
2019-03-30T08:13:28.676Z,60.53
2019-03-30T08:16:02.710Z,60.47
2019-03-30T08:18:36.636Z,60.65
2019-03-30T08:21:10.551Z,60.68
2019-03-30T08:23:46.937Z,60.85
2019-03-30T08:26:20.982Z,60.51
2019-03-30T08:28:55.070Z,61.37
2019-03-30T08:31:30.793Z,60.61
2019-03-30T08:34:06.119Z,60.56
2019-03-30T08:36:40.240Z,60.12
2019-03-30T08:39:14.335Z,59.83
2019-03-30T08:41:48.522Z,59.59
2019-03-30T08:44:22.824Z,59.63
2019-03-30T08:46:56.894Z,59.10
2019-03-30T08:49:30.953Z,58.69
2019-03-30T08:52:05.324Z,59.31
2019-03-30T08:55:29.812Z,57.70
2019-03-30T08:58:44.110Z,57.66
2019-03-30T09:01:36.598Z,57.94
2019-03-30T09:04:12.140Z,57.35
2019-03-30T09:06:46.327Z,57.19
2019-03-30T09:09:20.403Z,56.06
2019-03-30T09:11:54.995Z,56.97
2019-03-30T09:14:29.185Z,56.49
2019-03-30T09:17:03.295Z,55.47
2019-03-30T09:19:37.899Z,55.45
2019-03-30T09:22:11.976Z,56.32
2019-03-30T09:24:46.144Z,55.02
2019-03-30T09:27:20.230Z,55.10
2019-03-30T09:29:54.327Z,53.90
2019-03-30T09:32:29.379Z,55.57
2019-03-30T09:35:07.553Z,54.96
2019-03-30T09:37:41.690Z,53.51
2019-03-30T09:40:15.918Z,54.34
2019-03-30T09:42:49.928Z,53.44
2019-03-30T09:45:25.110Z,53.11
2019-03-30T09:47:59.324Z,53.75
2019-03-30T09:50:32.996Z,54.22
2019-03-30T09:53:06.740Z,53.41
2019-03-30T09:55:40.365Z,53.77
2019-03-30T09:58:13.982Z,53.30
2019-03-30T10:00:52.330Z,53.37
2019-03-30T10:03:25.956Z,53.14
2019-03-30T10:06:01.482Z,52.61
2019-03-30T10:08:35.115Z,51.93
2019-03-30T10:11:08.750Z,51.94
2019-03-30T10:13:42.453Z,52.40
2019-03-30T10:16:16.103Z,52.11
2019-03-30T10:18:49.734Z,52.00
2019-03-30T10:21:23.323Z,50.79
2019-03-30T10:23:56.928Z,51.58
2019-03-30T10:26:30.719Z,50.52
2019-03-30T10:29:04.279Z,50.96
2019-03-30T10:31:37.902Z,50.07
2019-03-30T10:34:12.428Z,49.28
2019-03-30T10:36:46.052Z,49.75
2019-03-30T10:39:19.706Z,49.86
2019-03-30T10:41:53.409Z,49.94
2019-03-30T10:44:26.965Z,49.48
2019-03-30T10:47:00.628Z,49.50
2019-03-30T10:49:34.290Z,49.28
2019-03-30T10:52:07.868Z,48.40
2019-03-30T10:54:51.974Z,48.87
2019-03-30T10:57:16.867Z,48.85
2019-03-30T10:59:50.850Z,48.85
2019-03-30T11:02:25.249Z,48.09
2019-03-30T11:07:54.614Z,48.25
2019-03-30T11:10:28.766Z,48.26
2019-03-30T11:13:03.200Z,48.04
2019-03-30T11:15:37.278Z,47.70
2019-03-30T11:18:11.273Z,46.93
2019-03-30T11:20:45.232Z,46.99
2019-03-30T11:23:19.098Z,47.21
2019-03-30T11:25:53.310Z,46.71
2019-03-30T11:28:27.175Z,47.15
2019-03-30T11:31:01.147Z,45.65
2019-03-30T11:33:35.252Z,46.08
2019-03-30T11:36:09.246Z,45.84
2019-03-30T11:38:43.263Z,46.16
2019-03-30T11:41:17.278Z,45.79
2019-03-30T11:43:51.323Z,45.12
2019-03-30T11:46:25.265Z,45.30
2019-03-30T11:48:59.645Z,45.22
2019-03-30T11:51:33.595Z,44.83
2019-03-30T11:54:07.760Z,43.65
2019-03-30T11:56:41.659Z,44.10
2019-03-30T11:59:15.545Z,43.83
2019-03-30T12:01:49.509Z,44.18
2019-03-30T12:04:26.019Z,44.65
2019-03-30T12:06:59.970Z,44.08
2019-03-30T12:09:33.999Z,43.41
2019-03-30T12:12:07.966Z,43.94
2019-03-30T12:14:41.920Z,42.72
2019-03-30T12:17:16.955Z,43.06
2019-03-30T12:19:51.643Z,43.11
2019-03-30T12:22:48.948Z,44.12
2019-03-30T12:25:34.894Z,43.08
2019-03-30T12:27:58.240Z,42.29
2019-03-30T12:30:32.046Z,41.89
2019-03-30T12:33:05.962Z,42.54
2019-03-30T12:35:42.027Z,42.65
2019-03-30T12:38:16.440Z,41.79
2019-03-30T12:40:51.119Z,42.49
2019-03-30T12:43:24.748Z,42.57
2019-03-30T12:45:58.491Z,42.09
2019-03-30T12:48:32.196Z,42.12
2019-03-30T12:51:05.924Z,42.28
2019-03-30T12:53:49.950Z,42.97
2019-03-30T12:56:16.211Z,42.87
2019-03-30T12:58:50.057Z,41.37
2019-03-30T13:01:23.966Z,40.96
2019-03-30T13:03:58.871Z,42.07
2019-03-30T13:06:32.846Z,41.12
2019-03-30T13:09:09.055Z,42.19
2019-03-30T13:11:42.921Z,42.66
2019-03-30T13:14:16.828Z,41.28
2019-03-30T13:16:50.929Z,41.77
2019-03-30T13:19:25.836Z,41.60
2019-03-30T13:22:00.788Z,41.38
2019-03-30T13:24:34.785Z,41.44
2019-03-30T13:27:08.850Z,41.96
2019-03-30T13:29:42.934Z,42.26
2019-03-30T13:32:18.457Z,43.19
2019-03-30T13:34:53.970Z,43.18
2019-03-30T13:37:27.760Z,43.27
2019-03-30T13:40:01.655Z,42.91
2019-03-30T13:42:35.609Z,43.27
2019-03-30T13:45:09.598Z,43.57
2019-03-30T13:47:43.429Z,43.63
2019-03-30T13:50:17.247Z,43.67
2019-03-30T13:52:51.098Z,43.36
2019-03-30T13:55:24.907Z,43.43
2019-03-30T13:57:58.914Z,43.61
2019-03-30T14:00:32.811Z,43.92
2019-03-30T14:03:06.720Z,44.06
2019-03-30T14:05:41.592Z,43.58
2019-03-30T14:08:15.577Z,43.40
2019-03-30T14:10:49.492Z,43.71
2019-03-30T14:13:24.460Z,44.47
2019-03-30T14:15:59.370Z,44.41
2019-03-30T14:18:33.403Z,43.92
2019-03-30T14:21:07.200Z,43.16
2019-03-30T14:23:43.442Z,43.33
2019-03-30T14:26:30.211Z,43.63
2019-03-30T14:28:51.693Z,43.45
2019-03-30T14:31:25.349Z,43.27
2019-03-30T14:33:59.728Z,43.15
2019-03-30T14:36:34.301Z,42.51
2019-03-30T14:39:09.159Z,42.58
2019-03-30T14:41:42.977Z,41.97
2019-03-30T14:44:17.223Z,42.55
2019-03-30T14:46:51.154Z,42.78
2019-03-30T14:49:25.289Z,42.42
2019-03-30T14:51:59.059Z,42.53
2019-03-30T14:54:32.989Z,41.89
2019-03-30T14:57:06.915Z,42.08
2019-03-30T14:59:40.825Z,42.51
2019-03-30T15:02:14.657Z,42.36
2019-03-30T15:04:48.568Z,42.65
2019-03-30T15:07:23.217Z,42.62
2019-03-30T15:09:57.176Z,41.52
2019-03-30T15:12:30.990Z,41.24
2019-03-30T15:15:05.045Z,41.17
2019-03-30T15:17:40.818Z,41.43
2019-03-30T15:20:16.209Z,41.57
2019-03-30T15:22:50.924Z,41.75
2019-03-30T15:25:24.684Z,42.25
2019-03-30T15:27:59.587Z,42.73
2019-03-30T15:30:33.927Z,42.58
2019-03-30T15:33:20.210Z,43.21
2019-03-30T15:35:53.896Z,43.02
2019-03-30T15:38:28.776Z,43.65
2019-03-30T15:41:02.947Z,42.90
2019-03-30T15:43:38.661Z,42.80
2019-03-30T15:46:14.235Z,43.49
2019-03-30T15:48:48.181Z,43.16
2019-03-30T15:51:22.035Z,43.38
2019-03-30T15:53:56.852Z,43.34
2019-03-30T15:56:31.951Z,43.50
2019-03-30T15:59:06.010Z,44.03
2019-03-30T16:01:39.897Z,44.17
2019-03-30T16:04:13.802Z,44.63
2019-03-30T16:06:47.543Z,44.43
2019-03-30T16:09:21.291Z,44.45
2019-03-30T16:11:54.974Z,44.94
2019-03-30T16:14:28.849Z,45.00
2019-03-30T16:17:02.620Z,45.31
2019-03-30T16:19:36.382Z,46.40
2019-03-30T16:22:10.187Z,45.43
2019-03-30T16:24:44.051Z,45.68
2019-03-30T16:27:28.209Z,45.90
2019-03-30T16:29:53.205Z,46.21
2019-03-30T16:32:26.927Z,46.32
2019-03-30T16:35:00.627Z,46.22
2019-03-30T16:37:35.428Z,46.54
2019-03-30T16:40:09.070Z,46.86
2019-03-30T16:42:43.996Z,47.28
2019-03-30T16:45:18.736Z,48.46
2019-03-30T16:47:52.533Z,47.01
2019-03-30T16:50:26.491Z,47.02
2019-03-30T16:53:00.501Z,47.20
2019-03-30T16:55:34.402Z,47.63
2019-03-30T16:58:08.856Z,48.12
2019-03-30T17:00:56.285Z,48.50
2019-03-30T17:03:24.244Z,48.94
2019-03-30T17:05:58.432Z,49.45
2019-03-30T17:08:32.347Z,50.07
2019-03-30T17:11:06.589Z,50.36
2019-03-30T17:13:46.644Z,50.83
2019-03-30T17:16:20.677Z,50.48
2019-03-30T17:18:54.501Z,50.89
2019-03-30T17:21:28.168Z,51.36
2019-03-30T17:24:15.872Z,51.62
2019-03-30T17:26:49.782Z,51.56
2019-03-30T17:29:23.616Z,51.95
2019-03-30T17:31:57.415Z,52.15
2019-03-30T17:34:31.233Z,52.33
2019-03-30T17:37:05.326Z,52.52
2019-03-30T17:39:40.311Z,52.77
2019-03-30T17:42:14.098Z,52.95
2019-03-30T17:44:47.960Z,53.51
2019-03-30T17:47:21.701Z,53.58
2019-03-30T17:50:12.758Z,53.76
2019-03-30T17:52:46.909Z,53.85
2019-03-30T17:55:33.008Z,54.15
2019-03-30T17:57:56.448Z,54.54
2019-03-30T18:00:30.287Z,54.53
2019-03-30T18:03:04.110Z,54.53
2019-03-30T18:05:37.817Z,54.71
2019-03-30T18:08:12.383Z,54.80
2019-03-30T18:10:46.123Z,55.34
2019-03-30T18:13:20.208Z,55.27
2019-03-30T18:15:54.169Z,55.36
2019-03-30T18:18:28.002Z,55.73
2019-03-30T18:21:01.780Z,55.95
2019-03-30T18:23:35.583Z,56.00
2019-03-30T18:26:09.478Z,56.08
2019-03-30T18:28:43.289Z,56.33
2019-03-30T18:31:17.227Z,56.66
2019-03-30T18:33:51.002Z,57.00
2019-03-30T18:36:33.530Z,57.26
2019-03-30T18:39:13.048Z,57.46
2019-03-30T18:41:47.445Z,57.56
2019-03-30T18:44:21.414Z,57.87
2019-03-30T18:46:55.265Z,58.12
2019-03-30T18:49:31.122Z,58.41
2019-03-30T18:52:08.583Z,58.48
2019-03-30T18:54:43.151Z,58.69
2019-03-30T18:57:17.122Z,58.80
2019-03-30T18:59:51.008Z,59.18
2019-03-30T19:02:24.941Z,59.28
2019-03-30T19:04:58.909Z,59.37
2019-03-30T19:07:33.851Z,59.51
2019-03-30T19:10:08.236Z,59.70
2019-03-30T19:12:45.065Z,59.76
2019-03-30T19:15:23.045Z,60.07
2019-03-30T19:17:57.198Z,60.32
2019-03-30T19:20:31.144Z,60.52
2019-03-30T19:23:05.046Z,60.75
2019-03-30T19:25:38.870Z,60.98
2019-03-30T19:28:14.227Z,61.19
2019-03-30T19:30:48.156Z,61.26
2019-03-30T19:33:22.359Z,61.34
2019-03-30T19:35:58.951Z,61.66
2019-03-30T19:38:34.013Z,61.73
2019-03-30T19:41:07.933Z,61.94
2019-03-30T19:43:41.745Z,62.19
2019-03-30T19:46:16.830Z,62.35
2019-03-30T19:48:50.770Z,61.80
2019-03-30T19:51:24.598Z,50.82
2019-03-30T19:54:00.143Z,46.50
2019-03-30T19:56:34.752Z,48.24
2019-03-30T19:59:11.027Z,50.15
2019-03-30T20:01:44.923Z,51.29
2019-03-30T20:04:19.463Z,52.21
2019-03-30T20:06:53.386Z,52.89
2019-03-30T20:09:27.195Z,53.62
2019-03-30T20:12:02.850Z,54.60
2019-03-30T20:14:36.736Z,55.27
2019-03-30T20:17:11.011Z,55.87
2019-03-30T20:19:44.806Z,56.57
2019-03-30T20:22:18.703Z,57.06
2019-03-30T20:24:55.653Z,57.54
2019-03-30T20:27:29.543Z,58.10
2019-03-30T20:30:03.896Z,58.82
2019-03-30T20:32:38.267Z,59.45
2019-03-30T20:35:12.347Z,60.01
2019-03-30T20:37:46.506Z,60.43
2019-03-30T20:40:20.931Z,60.78
2019-03-30T20:42:55.104Z,61.17
2019-03-30T20:45:29.352Z,61.57
2019-03-30T20:48:04.101Z,61.99
2019-03-30T20:50:38.467Z,62.43
2019-03-30T20:53:12.952Z,62.35
2019-03-30T20:55:47.520Z,52.03
2019-03-30T20:58:21.588Z,47.68
2019-03-30T21:00:55.572Z,49.84
2019-03-30T21:03:29.936Z,51.56
2019-03-30T21:06:04.480Z,52.63
2019-03-30T21:08:38.515Z,53.83
2019-03-30T21:11:12.757Z,54.78
2019-03-30T21:13:46.785Z,55.48
2019-03-30T21:16:21.009Z,56.18
2019-03-30T21:18:54.912Z,56.92
2019-03-30T21:21:29.265Z,57.50
2019-03-30T21:24:03.356Z,58.18
2019-03-30T21:26:38.415Z,58.61
2019-03-30T21:29:12.534Z,59.21
2019-03-30T21:31:49.277Z,59.78
2019-03-30T21:34:22.106Z,60.10
2019-03-30T21:36:56.054Z,60.59
2019-03-30T21:39:29.987Z,60.91
2019-03-30T21:42:04.055Z,61.64
2019-03-30T21:44:37.816Z,62.09
2019-03-30T21:47:11.552Z,51.66
2019-03-30T21:49:45.197Z,47.58
2019-03-30T21:52:18.898Z,49.73
2019-03-30T21:54:52.541Z,51.65
2019-03-30T21:57:26.227Z,53.10
2019-03-30T22:00:09.918Z,54.06
2019-03-30T22:02:36.892Z,54.89
2019-03-30T22:05:10.633Z,55.78
2019-03-30T22:07:44.438Z,56.62
2019-03-30T22:10:27.814Z,57.33
2019-03-30T22:13:01.521Z,58.19
2019-03-30T22:15:35.161Z,58.67
2019-03-30T22:18:08.776Z,59.28
2019-03-30T22:20:42.421Z,59.93
2019-03-30T22:23:16.097Z,60.49
2019-03-30T22:25:49.750Z,60.96
2019-03-30T22:28:24.524Z,61.45
2019-03-30T22:30:58.110Z,61.96
2019-03-30T22:33:31.717Z,62.41
2019-03-30T22:36:05.367Z,62.59
2019-03-30T22:38:39.103Z,51.01
2019-03-30T22:41:12.753Z,47.03
2019-03-30T22:43:46.390Z,49.05
2019-03-30T22:46:20.311Z,51.13
2019-03-30T22:48:53.930Z,52.74
2019-03-30T22:51:27.575Z,53.80
2019-03-30T22:54:01.197Z,54.81
2019-03-30T22:56:34.840Z,55.35
2019-03-30T22:59:08.519Z,56.08
2019-03-30T23:01:42.093Z,56.92
2019-03-30T23:04:15.896Z,57.79
2019-03-30T23:06:49.555Z,58.51
2019-03-30T23:09:23.216Z,59.04
2019-03-30T23:11:56.787Z,59.56
2019-03-30T23:14:30.421Z,60.01
2019-03-30T23:17:04.163Z,60.48
2019-03-30T23:19:37.938Z,60.89
2019-03-30T23:22:11.617Z,61.39
2019-03-30T23:24:45.291Z,61.81
2019-03-30T23:27:18.973Z,62.19
2019-03-30T23:29:52.769Z,62.99
2019-03-30T23:32:26.577Z,52.12
2019-03-30T23:35:00.767Z,47.53
2019-03-30T23:37:34.585Z,49.58
2019-03-30T23:40:08.832Z,51.66
2019-03-30T23:42:42.754Z,53.04
2019-03-30T23:45:17.454Z,54.13
2019-03-30T23:47:51.403Z,55.06
2019-03-30T23:50:25.252Z,55.99
2019-03-30T23:52:59.102Z,56.85
2019-03-30T23:55:33.078Z,57.64
2019-03-30T23:58:06.979Z,58.36
